createdAt,value
2023-03-02T00:01:10.768Z,57.41
2023-03-02T00:03:40.998Z,57.77
2023-03-02T00:06:09.221Z,58.27
2023-03-02T00:08:38.083Z,58.15
2023-03-02T00:11:04.866Z,58.55
2023-03-02T00:13:51.395Z,58.01
2023-03-02T00:16:18.088Z,58.14
2023-03-02T00:18:44.922Z,57.62
2023-03-02T00:21:11.485Z,57.98
2023-03-02T00:23:38.237Z,57.75
2023-03-02T00:26:06.156Z,58.26
2023-03-02T00:28:33.988Z,57.60
2023-03-02T00:31:04.548Z,57.41
2023-03-02T00:33:32.325Z,57.24
2023-03-02T00:35:58.878Z,57.31
2023-03-02T00:38:25.392Z,58.62
2023-03-02T00:40:51.874Z,58.04
2023-03-02T00:43:18.343Z,58.78
2023-03-02T00:45:45.145Z,59.15
2023-03-02T00:48:11.633Z,59.34
2023-03-02T00:50:38.279Z,60.15
2023-03-02T00:53:04.916Z,60.43
2023-03-02T00:55:31.422Z,59.47
2023-03-02T00:57:57.898Z,58.96
2023-03-02T01:00:24.672Z,58.51
2023-03-02T01:02:51.211Z,58.38
2023-03-02T01:05:17.885Z,58.64
2023-03-02T01:07:44.432Z,58.04
2023-03-02T01:10:11.613Z,58.20
2023-03-02T01:12:38.355Z,57.77
2023-03-02T01:15:06.449Z,58.01
2023-03-02T01:21:20.365Z,58.83
2023-03-02T01:23:46.885Z,59.49
2023-03-02T01:26:13.524Z,59.06
2023-03-02T01:28:40.056Z,59.26
2023-03-02T01:31:06.600Z,58.09
2023-03-02T01:33:33.138Z,57.61
2023-03-02T01:35:59.801Z,56.64
2023-03-02T01:38:26.583Z,56.42
2023-03-02T01:40:53.152Z,57.88
2023-03-02T01:43:19.821Z,56.64
2023-03-02T01:46:06.956Z,57.85
2023-03-02T01:48:42.702Z,58.22
2023-03-02T01:51:16.197Z,57.63
2023-03-02T01:53:47.986Z,57.45
2023-03-02T01:56:21.463Z,57.13
2023-03-02T01:58:54.072Z,56.76
2023-03-02T02:01:21.890Z,56.51
2023-03-02T02:03:51.072Z,56.55
2023-03-02T02:06:24.105Z,55.80
2023-03-02T02:08:54.407Z,55.10
2023-03-02T02:11:20.959Z,54.36
2023-03-02T02:13:47.954Z,54.07
2023-03-02T02:16:14.534Z,54.29
2023-03-02T02:18:44.295Z,54.52
2023-03-02T02:21:11.622Z,55.04
2023-03-02T02:24:23.037Z,54.45
2023-03-02T02:26:52.911Z,54.71
2023-03-02T02:29:32.215Z,54.06
2023-03-02T02:32:15.775Z,53.58
2023-03-02T02:34:47.358Z,53.85
2023-03-02T02:37:25.854Z,54.13
2023-03-02T02:39:52.536Z,54.19
2023-03-02T02:42:34.026Z,53.79
2023-03-02T02:45:06.696Z,53.77
2023-03-02T02:47:34.094Z,53.73
2023-03-02T02:50:01.147Z,53.81
2023-03-02T02:52:29.383Z,54.41
2023-03-02T02:54:58.308Z,54.09
2023-03-02T02:57:29.754Z,53.81
2023-03-02T03:00:00.233Z,54.25
2023-03-02T03:02:32.973Z,54.56
2023-03-02T03:04:59.506Z,54.37
2023-03-02T03:07:26.106Z,54.06
2023-03-02T03:10:24.544Z,54.56
2023-03-02T03:12:51.639Z,54.47
2023-03-02T03:15:18.836Z,54.69
2023-03-02T03:17:54.178Z,54.53
2023-03-02T03:20:22.643Z,54.67
2023-03-02T03:22:49.140Z,54.63
2023-03-02T03:25:15.728Z,53.95
2023-03-02T03:27:42.986Z,53.63
2023-03-02T03:30:14.700Z,53.87
2023-03-02T03:32:41.524Z,54.53
2023-03-02T03:35:08.897Z,54.52
2023-03-02T03:37:36.478Z,54.47
2023-03-02T03:40:03.313Z,55.15
2023-03-02T03:42:29.808Z,54.44
2023-03-02T03:44:56.354Z,54.10
2023-03-02T03:47:22.894Z,54.45
2023-03-02T03:49:49.395Z,54.30
2023-03-02T03:52:15.909Z,53.88
2023-03-02T03:54:42.413Z,53.61
2023-03-02T03:57:08.892Z,53.51
2023-03-02T03:59:35.358Z,52.85
2023-03-02T04:02:02.443Z,52.79
2023-03-02T04:04:33.917Z,52.28
2023-03-02T04:07:00.773Z,52.59
2023-03-02T04:09:27.539Z,51.95
2023-03-02T04:11:56.983Z,51.84
2023-03-02T04:14:24.799Z,51.72
2023-03-02T04:16:52.106Z,51.83
2023-03-02T04:19:18.944Z,52.02
2023-03-02T04:21:49.106Z,51.76
2023-03-02T04:24:17.484Z,52.52
2023-03-02T04:26:45.684Z,53.07
2023-03-02T04:29:13.756Z,52.85
2023-03-02T04:31:40.916Z,52.87
2023-03-02T04:34:08.638Z,52.39
2023-03-02T04:36:39.073Z,52.06
2023-03-02T04:39:07.085Z,51.98
2023-03-02T04:41:34.150Z,52.02
2023-03-02T04:44:00.645Z,51.73
2023-03-02T04:46:28.185Z,52.29
2023-03-02T04:48:55.305Z,52.52
2023-03-02T04:51:29.528Z,53.00
2023-03-02T04:53:59.741Z,53.37
2023-03-02T04:56:26.891Z,53.20
2023-03-02T04:58:53.444Z,53.85
2023-03-02T05:01:20.900Z,53.84
2023-03-02T05:03:48.337Z,55.32
2023-03-02T05:06:15.604Z,55.71
2023-03-02T05:08:42.936Z,57.61
2023-03-02T05:11:12.936Z,58.83
2023-03-02T05:13:39.423Z,60.72
2023-03-02T05:16:06.155Z,60.29
2023-03-02T05:18:32.733Z,59.37
2023-03-02T05:20:59.203Z,59.57
2023-03-02T05:23:26.053Z,59.88
2023-03-02T05:25:56.194Z,60.66
2023-03-02T05:28:25.288Z,61.33
2023-03-02T05:30:52.670Z,62.79
2023-03-02T05:33:20.189Z,63.17
2023-03-02T05:35:47.336Z,61.57
2023-03-02T05:38:14.778Z,60.94
2023-03-02T05:40:41.549Z,62.41
2023-03-02T05:43:08.833Z,61.56
2023-03-02T05:45:38.272Z,59.84
2023-03-02T05:48:05.750Z,59.39
2023-03-02T05:50:32.285Z,60.57
2023-03-02T05:52:59.177Z,61.77
2023-03-02T05:55:26.503Z,60.48
2023-03-02T05:57:52.983Z,60.10
2023-03-02T06:00:20.702Z,60.99
2023-03-02T06:02:47.784Z,61.00
2023-03-02T06:05:17.878Z,59.93
2023-03-02T06:07:45.032Z,60.12
2023-03-02T06:10:12.942Z,59.01
2023-03-02T06:12:40.092Z,57.95
2023-03-02T06:15:07.824Z,57.17
2023-03-02T06:17:34.686Z,56.97
2023-03-02T06:20:01.286Z,57.52
2023-03-02T06:22:27.863Z,58.72
2023-03-02T06:24:54.524Z,57.20
2023-03-02T06:27:21.370Z,57.45
2023-03-02T06:29:47.859Z,57.28
2023-03-02T06:32:14.455Z,56.87
2023-03-02T06:34:41.052Z,57.82
2023-03-02T06:37:07.567Z,56.61
2023-03-02T06:39:34.102Z,56.12
2023-03-02T06:42:03.504Z,55.32
2023-03-02T06:45:08.953Z,54.19
2023-03-02T06:47:39.152Z,55.31
2023-03-02T06:50:06.316Z,54.54
2023-03-02T06:52:33.268Z,55.00
2023-03-02T06:55:03.018Z,54.57
2023-03-02T06:57:29.641Z,54.97
2023-03-02T06:59:56.110Z,55.27
2023-03-02T07:02:22.606Z,54.09
2023-03-02T07:04:49.124Z,53.47
2023-03-02T07:07:15.615Z,53.66
2023-03-02T07:09:42.258Z,53.76
2023-03-02T07:12:08.781Z,54.02
2023-03-02T07:14:35.849Z,53.36
2023-03-02T07:17:05.171Z,53.76
2023-03-02T07:19:31.694Z,53.14
2023-03-02T07:21:58.168Z,53.48
2023-03-02T07:24:24.682Z,53.50
2023-03-02T07:26:51.260Z,53.14
2023-03-02T07:29:17.723Z,52.90
2023-03-02T07:31:44.249Z,52.96
2023-03-02T07:34:10.760Z,54.14
2023-03-02T07:36:37.242Z,53.71
2023-03-02T07:39:04.227Z,53.20
2023-03-02T07:41:31.150Z,52.65
2023-03-02T07:43:57.909Z,52.17
2023-03-02T07:46:24.463Z,51.83
2023-03-02T07:48:51.017Z,50.98
2023-03-02T07:51:17.532Z,51.12
2023-03-02T07:53:44.179Z,50.60
2023-03-02T07:56:11.660Z,50.96
2023-03-02T07:58:38.407Z,51.64
2023-03-02T08:01:05.110Z,53.45
2023-03-02T08:03:31.630Z,53.02
2023-03-02T08:05:58.128Z,51.94
2023-03-02T08:08:24.758Z,53.18
2023-03-02T08:10:51.377Z,53.37
2023-03-02T08:13:17.871Z,52.74
2023-03-02T08:15:44.410Z,53.59
2023-03-02T08:18:10.898Z,53.13
2023-03-02T08:20:37.513Z,53.46
2023-03-02T08:23:04.060Z,52.80
2023-03-02T08:25:30.573Z,52.04
2023-03-02T08:27:57.045Z,52.20
2023-03-02T08:30:23.605Z,51.82
2023-03-02T08:32:50.176Z,51.55
2023-03-02T08:35:16.740Z,51.03
2023-03-02T08:37:43.258Z,50.79
2023-03-02T08:40:10.353Z,50.59
2023-03-02T08:42:36.926Z,49.95
2023-03-02T08:45:03.675Z,50.15
2023-03-02T08:47:30.160Z,50.56
2023-03-02T08:49:56.641Z,50.12
2023-03-02T08:52:23.128Z,50.08
2023-03-02T08:54:49.648Z,50.79
2023-03-02T08:57:16.229Z,50.90
2023-03-02T08:59:42.928Z,50.22
2023-03-02T09:02:11.844Z,50.49
2023-03-02T09:04:38.481Z,50.44
2023-03-02T09:07:05.044Z,50.24
2023-03-02T09:09:31.580Z,50.43
2023-03-02T09:11:58.106Z,50.92
2023-03-02T09:14:24.617Z,51.15
2023-03-02T09:16:51.178Z,51.01
2023-03-02T09:19:17.944Z,50.64
2023-03-02T09:21:44.705Z,52.08
2023-03-02T09:24:11.366Z,52.09
2023-03-02T09:26:37.842Z,51.40
2023-03-02T09:29:04.892Z,50.99
2023-03-02T09:31:31.484Z,51.01
2023-03-02T09:33:58.165Z,50.70
2023-03-02T09:36:26.404Z,50.78
2023-03-02T09:38:53.480Z,50.73
2023-03-02T09:41:19.983Z,49.93
2023-03-02T09:44:08.307Z,49.14
2023-03-02T09:46:47.633Z,48.59
2023-03-02T09:49:45.101Z,49.01
2023-03-02T09:52:30.958Z,48.18
2023-03-02T09:55:11.176Z,48.10
2023-03-02T09:57:39.091Z,47.47
2023-03-02T10:00:24.416Z,47.10
2023-03-02T10:02:53.943Z,48.21
2023-03-02T10:05:24.933Z,49.30
2023-03-02T10:07:51.620Z,49.38
2023-03-02T10:10:18.066Z,50.54
2023-03-02T10:13:08.815Z,51.24
2023-03-02T10:15:48.020Z,50.90
2023-03-02T10:18:23.934Z,49.70
2023-03-02T10:21:01.827Z,49.36
2023-03-02T10:23:51.313Z,49.19
2023-03-02T10:26:34.513Z,49.20
2023-03-02T10:29:30.183Z,48.79
2023-03-02T10:32:24.236Z,48.34
2023-03-02T10:34:53.079Z,48.35
2023-03-02T10:37:28.212Z,48.54
2023-03-02T10:39:55.806Z,48.45
2023-03-02T10:42:29.772Z,47.90
2023-03-02T10:45:21.805Z,48.53
2023-03-02T10:47:48.338Z,48.67
2023-03-02T10:50:22.376Z,47.99
2023-03-02T10:52:59.533Z,46.51
2023-03-02T10:55:27.203Z,47.33
2023-03-02T10:58:02.362Z,48.13
2023-03-02T11:00:31.462Z,46.65
2023-03-02T11:03:19.443Z,47.11
2023-03-02T11:05:45.921Z,47.40
2023-03-02T11:08:27.832Z,46.95
2023-03-02T11:11:03.818Z,47.25
2023-03-02T11:13:36.218Z,47.28
2023-03-02T11:16:06.645Z,46.82
2023-03-02T11:19:05.061Z,46.65
2023-03-02T11:21:38.977Z,47.29
2023-03-02T11:24:20.487Z,47.71
2023-03-02T11:26:52.707Z,47.23
2023-03-02T11:29:25.001Z,46.93
2023-03-02T11:31:58.737Z,47.23
2023-03-02T11:34:48.905Z,46.59
2023-03-02T11:37:21.238Z,46.87
2023-03-02T11:39:55.161Z,47.53
2023-03-02T11:42:31.005Z,47.57
2023-03-02T11:45:02.823Z,48.85
2023-03-02T11:47:32.301Z,49.02
2023-03-02T11:50:04.440Z,48.30
2023-03-02T11:52:37.656Z,48.33
2023-03-02T11:55:13.203Z,48.05
2023-03-02T11:57:48.779Z,48.23
2023-03-02T12:00:26.201Z,49.26
2023-03-02T12:03:07.309Z,49.61
2023-03-02T12:05:38.643Z,49.48
2023-03-02T12:08:20.372Z,48.24
2023-03-02T12:10:58.929Z,49.01
2023-03-02T12:13:57.442Z,48.51
2023-03-02T12:16:43.550Z,48.50
2023-03-02T12:19:12.681Z,48.84
2023-03-02T12:21:41.755Z,47.86
2023-03-02T12:24:25.303Z,47.56
2023-03-02T12:27:10.225Z,47.71
2023-03-02T12:29:45.869Z,47.85
2023-03-02T12:32:18.274Z,47.56
2023-03-02T12:35:02.794Z,47.74
2023-03-02T12:37:49.621Z,48.34
2023-03-02T12:40:39.109Z,47.43
2023-03-02T12:43:27.242Z,47.86
2023-03-02T12:46:10.405Z,48.12
2023-03-02T12:48:47.522Z,47.28
2023-03-02T12:51:21.566Z,46.32
2023-03-02T12:53:48.989Z,45.70
2023-03-02T12:56:26.466Z,45.55
2023-03-02T12:58:54.286Z,45.36
2023-03-02T13:01:23.845Z,46.15
2023-03-02T13:03:51.265Z,45.91
2023-03-02T13:06:20.273Z,45.15
2023-03-02T13:08:52.557Z,44.72
2023-03-02T13:11:33.030Z,44.78
2023-03-02T13:14:01.619Z,44.85
2023-03-02T13:16:31.905Z,45.27
2023-03-02T13:19:02.201Z,45.36
2023-03-02T13:21:36.290Z,44.88
2023-03-02T13:24:02.885Z,44.57
2023-03-02T13:26:37.182Z,44.44
2023-03-02T13:29:06.927Z,44.05
2023-03-02T13:31:34.813Z,43.29
2023-03-02T13:34:01.512Z,42.77
2023-03-02T13:36:36.019Z,42.36
2023-03-02T13:39:07.024Z,42.13
2023-03-02T13:41:36.214Z,41.72
2023-03-02T13:44:19.532Z,40.48
2023-03-02T13:46:47.369Z,41.18
2023-03-02T13:49:24.638Z,41.19
2023-03-02T13:52:01.201Z,40.37
2023-03-02T13:54:32.869Z,40.28
2023-03-02T13:57:03.030Z,40.19
2023-03-02T13:59:30.234Z,39.17
2023-03-02T14:01:56.767Z,39.03
2023-03-02T14:04:23.934Z,39.02
2023-03-02T14:06:52.873Z,38.43
2023-03-02T14:09:20.699Z,38.30
2023-03-02T14:11:52.557Z,38.48
2023-03-02T14:14:23.027Z,38.13
2023-03-02T14:16:50.815Z,36.99
2023-03-02T14:19:18.009Z,37.06
2023-03-02T14:21:45.806Z,36.94
2023-03-02T14:24:12.296Z,37.30
2023-03-02T14:26:44.849Z,37.27
2023-03-02T14:29:29.753Z,36.59
2023-03-02T14:31:59.227Z,36.51
2023-03-02T14:34:26.327Z,35.81
2023-03-02T14:36:58.846Z,35.79
2023-03-02T14:39:40.690Z,35.19
2023-03-02T14:42:17.022Z,35.14
2023-03-02T14:44:45.401Z,34.70
2023-03-02T14:47:12.518Z,34.39
2023-03-02T14:49:39.404Z,33.79
2023-03-02T14:52:46.690Z,33.51
2023-03-02T14:55:24.402Z,33.28
2023-03-02T14:58:05.020Z,32.06
2023-03-02T15:00:31.798Z,31.79
2023-03-02T15:02:58.787Z,31.92
2023-03-02T15:05:25.408Z,31.45
2023-03-02T15:07:51.929Z,31.60
2023-03-02T15:10:21.023Z,31.38
2023-03-02T15:12:47.640Z,31.53
2023-03-02T15:15:14.150Z,32.20
2023-03-02T15:17:41.272Z,32.28
2023-03-02T15:20:13.147Z,32.41
2023-03-02T15:22:39.626Z,32.16
2023-03-02T15:25:06.404Z,32.66
2023-03-02T15:27:32.969Z,32.02
2023-03-02T15:29:59.569Z,32.35
2023-03-02T15:32:26.161Z,32.60
2023-03-02T15:34:52.625Z,32.86
2023-03-02T15:37:19.221Z,32.26
2023-03-02T15:39:52.880Z,32.14
2023-03-02T15:42:19.654Z,31.77
2023-03-02T15:44:48.744Z,31.93
2023-03-02T15:47:15.299Z,31.11
2023-03-02T15:49:41.765Z,31.58
2023-03-02T15:52:09.774Z,31.90
2023-03-02T15:54:36.260Z,32.18
2023-03-02T15:57:02.842Z,31.85
2023-03-02T15:59:31.263Z,31.20
2023-03-02T16:01:58.499Z,31.46
2023-03-02T16:04:26.633Z,31.35
2023-03-02T16:06:53.164Z,31.40
2023-03-02T16:09:19.696Z,31.26
2023-03-02T16:11:48.878Z,31.34
2023-03-02T16:14:15.409Z,31.10
2023-03-02T16:16:43.464Z,31.89
2023-03-02T16:19:12.869Z,31.57
2023-03-02T16:21:39.488Z,33.00
2023-03-02T16:24:07.234Z,33.41
2023-03-02T16:26:36.706Z,33.67
2023-03-02T16:29:05.777Z,33.97
2023-03-02T16:31:32.355Z,34.19
2023-03-02T16:33:59.209Z,35.40
2023-03-02T16:36:27.403Z,35.12
2023-03-02T16:38:53.877Z,35.91
2023-03-02T16:41:23.285Z,36.78
2023-03-02T16:43:58.850Z,36.83
2023-03-02T16:46:28.686Z,37.42
2023-03-02T16:48:56.412Z,37.77
2023-03-02T16:51:22.909Z,38.39
2023-03-02T16:53:50.166Z,38.95
2023-03-02T16:56:16.710Z,38.90
2023-03-02T16:58:43.616Z,39.23
2023-03-02T17:01:13.677Z,38.92
2023-03-02T17:03:41.021Z,39.80
2023-03-02T17:06:10.913Z,40.30
2023-03-02T17:08:37.838Z,40.63
2023-03-02T17:11:04.515Z,40.88
2023-03-02T17:13:31.027Z,40.84
2023-03-02T17:15:58.498Z,41.08
2023-03-02T17:18:26.328Z,40.90
2023-03-02T17:20:55.027Z,41.34
2023-03-02T17:23:22.034Z,41.78
2023-03-02T17:25:48.599Z,42.69
2023-03-02T17:28:15.494Z,42.58
2023-03-02T17:30:43.260Z,42.73
2023-03-02T17:33:10.364Z,43.32
2023-03-02T17:35:37.473Z,43.07
2023-03-02T17:38:04.751Z,43.59
2023-03-02T17:40:32.193Z,44.11
2023-03-02T17:42:58.735Z,43.69
2023-03-02T17:45:27.543Z,44.06
2023-03-02T17:47:55.160Z,44.25
2023-03-02T17:50:23.187Z,44.25
2023-03-02T17:52:49.772Z,44.35
2023-03-02T17:55:16.555Z,44.73
2023-03-02T17:57:43.086Z,45.16
2023-03-02T18:00:14.918Z,45.20
2023-03-02T18:02:41.416Z,45.16
2023-03-02T18:05:08.649Z,45.30
2023-03-02T18:07:38.707Z,45.43
2023-03-02T18:10:06.646Z,45.03
2023-03-02T18:12:34.071Z,45.44
2023-03-02T18:15:00.554Z,45.32
2023-03-02T18:17:27.077Z,45.30
2023-03-02T18:19:53.563Z,45.58
2023-03-02T18:22:20.050Z,45.29
2023-03-02T18:24:46.525Z,45.00
2023-03-02T18:27:13.143Z,45.56
2023-03-02T18:29:39.649Z,45.70
2023-03-02T18:32:06.267Z,45.85
2023-03-02T18:34:32.794Z,45.95
2023-03-02T18:36:59.416Z,46.33
2023-03-02T18:39:25.948Z,46.01
2023-03-02T18:41:52.455Z,46.45
2023-03-02T18:44:19.297Z,47.55
2023-03-02T18:46:46.080Z,46.82
2023-03-02T18:49:12.726Z,46.95
2023-03-02T18:51:40.098Z,47.39
2023-03-02T18:54:06.589Z,47.36
2023-03-02T18:56:33.117Z,47.52
2023-03-02T18:58:59.605Z,48.48
2023-03-02T19:01:31.390Z,48.39
2023-03-02T19:03:57.990Z,48.74
2023-03-02T19:06:24.961Z,49.55
2023-03-02T19:08:51.570Z,49.35
2023-03-02T19:11:18.084Z,49.26
2023-03-02T19:13:44.655Z,49.55
2023-03-02T19:16:11.178Z,49.27
2023-03-02T19:18:37.810Z,49.12
2023-03-02T19:21:05.185Z,49.21
2023-03-02T19:23:32.500Z,48.36
2023-03-02T19:26:00.278Z,48.53
2023-03-02T19:28:26.932Z,48.47
2023-03-02T19:30:53.468Z,48.92
2023-03-02T19:33:20.017Z,48.75
2023-03-02T19:35:46.632Z,48.94
2023-03-02T19:38:13.140Z,48.97
2023-03-02T19:40:40.129Z,49.30
2023-03-02T19:43:06.702Z,49.30
2023-03-02T19:45:33.880Z,49.13
2023-03-02T19:48:00.711Z,49.47
2023-03-02T19:50:28.141Z,49.60
2023-03-02T19:52:56.049Z,49.47
2023-03-02T19:55:24.013Z,49.54
2023-03-02T19:57:51.770Z,49.40
2023-03-02T20:00:18.925Z,49.38
2023-03-02T20:02:47.028Z,49.58
2023-03-02T20:05:14.727Z,50.38
2023-03-02T20:07:42.023Z,50.30
2023-03-02T20:10:10.375Z,50.20
2023-03-02T20:12:37.313Z,49.85
2023-03-02T20:15:05.914Z,50.44
2023-03-02T20:17:32.624Z,50.15
2023-03-02T20:19:59.134Z,50.01
2023-03-02T20:22:25.622Z,50.35
2023-03-02T20:24:52.250Z,50.73
2023-03-02T20:27:18.833Z,50.53
2023-03-02T20:29:45.684Z,50.69
2023-03-02T20:32:13.180Z,51.31
2023-03-02T20:34:41.428Z,50.88
2023-03-02T20:37:08.152Z,51.01
2023-03-02T20:39:38.724Z,51.27
2023-03-02T20:42:06.888Z,51.32
2023-03-02T20:44:34.882Z,51.45
2023-03-02T20:47:06.356Z,51.29
2023-03-02T20:49:33.117Z,51.51
2023-03-02T20:52:00.838Z,50.98
2023-03-02T20:54:31.722Z,50.93
2023-03-02T20:56:58.997Z,51.05
2023-03-02T20:59:26.936Z,51.24
2023-03-02T21:01:53.575Z,51.47
2023-03-02T21:04:22.009Z,51.00
2023-03-02T21:06:48.699Z,51.04
2023-03-02T21:09:15.963Z,52.01
2023-03-02T21:11:42.471Z,51.46
2023-03-02T21:14:09.094Z,52.02
2023-03-02T21:16:38.837Z,52.10
2023-03-02T21:19:09.456Z,51.80
2023-03-02T21:21:41.725Z,51.48
2023-03-02T21:24:11.227Z,51.84
2023-03-02T21:26:38.091Z,51.69
2023-03-02T21:29:05.374Z,52.14
2023-03-02T21:31:32.185Z,52.64
2023-03-02T21:33:58.766Z,52.19
2023-03-02T21:36:25.707Z,52.66
2023-03-02T21:38:52.661Z,52.38
2023-03-02T21:41:19.386Z,53.00
2023-03-02T21:43:46.074Z,52.38
2023-03-02T21:46:15.065Z,52.46
2023-03-02T21:48:41.965Z,51.98
2023-03-02T21:51:11.260Z,52.22
2023-03-02T21:53:37.812Z,52.88
2023-03-02T21:56:04.639Z,52.37
2023-03-02T21:58:31.141Z,52.33
2023-03-02T22:00:57.648Z,52.20
2023-03-02T22:03:33.263Z,52.24
2023-03-02T22:05:59.728Z,52.43
2023-03-02T22:08:26.219Z,52.33
2023-03-02T22:10:52.685Z,52.04
2023-03-02T22:13:29.983Z,52.18
2023-03-02T22:16:10.864Z,51.49
2023-03-02T22:18:37.493Z,51.83
2023-03-02T22:21:26.356Z,51.98
2023-03-02T22:24:08.088Z,52.05
2023-03-02T22:26:42.182Z,52.09
2023-03-02T22:29:25.314Z,51.81
2023-03-02T22:31:55.256Z,52.05
2023-03-02T22:34:28.280Z,51.96
2023-03-02T22:36:58.751Z,52.04
2023-03-02T22:39:32.481Z,52.44
2023-03-02T22:42:06.437Z,52.88
2023-03-02T22:44:32.956Z,52.59
2023-03-02T22:47:00.367Z,52.46
2023-03-02T22:49:28.080Z,52.65
2023-03-02T22:51:57.651Z,52.81
2023-03-02T22:54:36.387Z,53.31
2023-03-02T22:57:03.532Z,52.89
2023-03-02T22:59:36.528Z,53.30
2023-03-02T23:02:15.168Z,53.32
2023-03-02T23:04:47.580Z,53.59
2023-03-02T23:07:18.823Z,53.75
2023-03-02T23:09:46.170Z,54.30
2023-03-02T23:12:27.971Z,54.19
2023-03-02T23:14:57.044Z,54.64
2023-03-02T23:17:37.831Z,54.52
2023-03-02T23:20:12.513Z,54.72
2023-03-02T23:22:39.683Z,55.29
2023-03-02T23:25:07.478Z,54.57
2023-03-02T23:27:33.978Z,54.46
2023-03-02T23:30:00.565Z,53.97
2023-03-02T23:32:27.145Z,54.88
2023-03-02T23:34:53.678Z,54.47
2023-03-02T23:37:20.147Z,55.93
2023-03-02T23:39:46.669Z,57.40
2023-03-02T23:42:13.278Z,58.16
2023-03-02T23:44:39.747Z,59.67
2023-03-02T23:47:06.258Z,59.68
2023-03-02T23:49:32.729Z,59.02
2023-03-02T23:51:59.236Z,59.04
2023-03-02T23:54:25.792Z,58.29
2023-03-02T23:56:52.256Z,57.74
2023-03-02T23:59:18.854Z,57.53
